createdAt,value
2017-09-14T00:00:37.612Z,6.75
2017-09-14T00:03:04.267Z,10.68
2017-09-14T00:05:30.928Z,7.55
2017-09-14T00:07:57.588Z,6.05
2017-09-14T00:10:24.244Z,8.25
2017-09-14T00:12:50.903Z,6.82
2017-09-14T00:15:17.556Z,8.70
2017-09-14T00:17:44.258Z,7.57
2017-09-14T00:20:10.915Z,8.48
2017-09-14T00:22:37.572Z,6.80
2017-09-14T00:25:04.228Z,5.10
2017-09-14T00:27:30.884Z,9.10
2017-09-14T00:29:57.535Z,6.57
2017-09-14T00:32:24.187Z,6.60
2017-09-14T00:34:50.836Z,7.40
2017-09-14T00:37:17.496Z,11.05
2017-09-14T00:39:44.155Z,15.85
2017-09-14T00:42:10.811Z,9.85
2017-09-14T00:44:37.468Z,11.77
2017-09-14T00:47:04.124Z,6.43
2017-09-14T00:49:30.781Z,9.00
2017-09-14T00:51:57.471Z,10.57
2017-09-14T00:54:24.226Z,6.53
2017-09-14T00:56:50.928Z,10.65
2017-09-14T00:59:17.583Z,9.18
2017-09-14T01:01:44.245Z,16.85
2017-09-14T01:04:10.928Z,9.80
2017-09-14T01:06:37.584Z,8.30
2017-09-14T01:09:04.267Z,15.05
2017-09-14T01:11:30.920Z,7.95
2017-09-14T01:14:09.363Z,8.10
2017-09-14T01:16:36.024Z,7.65
2017-09-14T01:19:02.707Z,8.63
2017-09-14T01:21:29.364Z,8.10
2017-09-14T01:23:56.023Z,10.48
2017-09-14T01:26:22.703Z,10.40
2017-09-14T01:28:49.360Z,9.05
2017-09-14T01:31:16.039Z,10.85
2017-09-14T01:33:42.695Z,9.45
2017-09-14T01:36:09.372Z,9.15
2017-09-14T01:38:36.032Z,8.02
2017-09-14T01:41:02.720Z,10.70
2017-09-14T01:43:29.380Z,11.02
2017-09-14T01:45:56.035Z,8.85
2017-09-14T01:48:22.691Z,9.77
2017-09-14T01:50:49.348Z,9.77
2017-09-14T01:53:16.031Z,7.43
2017-09-14T01:55:42.687Z,6.00
2017-09-14T01:58:09.359Z,6.18
2017-09-14T02:00:36.019Z,9.00
2017-09-14T02:03:02.704Z,5.80
2017-09-14T02:05:29.363Z,8.90
2017-09-14T02:07:56.016Z,8.93
2017-09-14T02:10:22.676Z,8.88
2017-09-14T02:12:49.339Z,7.30
2017-09-14T02:15:15.996Z,11.43
2017-09-14T02:17:42.653Z,8.45
2017-09-14T02:20:09.307Z,6.43
2017-09-14T02:22:35.964Z,6.82
2017-09-14T02:25:02.644Z,6.25
2017-09-14T02:27:29.300Z,8.00
2017-09-14T02:29:55.988Z,7.82
2017-09-14T02:32:22.638Z,4.93
2017-09-14T02:34:49.296Z,8.27
2017-09-14T02:37:15.960Z,3.83
2017-09-14T02:39:42.615Z,3.85
2017-09-14T02:42:09.307Z,6.28
2017-09-14T02:44:35.958Z,6.00
2017-09-14T02:47:02.637Z,5.97
2017-09-14T02:49:29.299Z,4.82
2017-09-14T02:51:55.976Z,7.35
2017-09-14T02:54:22.624Z,4.40
2017-09-14T02:56:49.324Z,4.78
2017-09-14T02:59:15.979Z,6.80
2017-09-14T03:01:42.631Z,6.32
2017-09-14T03:04:09.283Z,5.97
2017-09-14T03:06:35.940Z,4.30
2017-09-14T03:09:02.599Z,3.90
2017-09-14T03:11:29.260Z,5.22
2017-09-14T03:13:55.947Z,4.40
2017-09-14T03:16:22.611Z,5.45
2017-09-14T03:18:49.288Z,8.65
2017-09-14T03:21:15.972Z,9.65
2017-09-14T03:23:42.623Z,7.53
2017-09-14T03:26:09.280Z,5.35
2017-09-14T03:28:35.927Z,6.00
2017-09-14T03:31:02.585Z,5.45
2017-09-14T03:33:29.242Z,6.12
2017-09-14T03:35:55.904Z,5.75
2017-09-14T03:38:22.608Z,6.30
2017-09-14T03:40:49.283Z,8.50
2017-09-14T03:43:15.940Z,8.50
2017-09-14T03:45:42.628Z,6.68
2017-09-14T03:48:09.295Z,10.32
2017-09-14T03:50:35.943Z,9.07
2017-09-14T03:53:02.595Z,7.75
2017-09-14T03:55:29.284Z,8.48
2017-09-14T03:57:55.962Z,13.65
2017-09-14T04:00:22.627Z,12.18
2017-09-14T04:02:49.286Z,8.30
2017-09-14T04:05:15.947Z,10.13
2017-09-14T04:07:42.647Z,11.70
2017-09-14T04:10:09.308Z,13.35
2017-09-14T04:12:35.963Z,14.32
2017-09-14T04:15:02.620Z,11.20
2017-09-14T04:17:29.283Z,13.25
2017-09-14T04:19:55.944Z,11.10
2017-09-14T04:22:22.603Z,10.98
2017-09-14T04:24:49.265Z,14.98
2017-09-14T04:27:15.928Z,13.23
2017-09-14T04:29:42.588Z,14.95
2017-09-14T04:32:09.247Z,19.40
2017-09-14T04:34:35.952Z,13.02
2017-09-14T04:37:02.612Z,14.55
2017-09-14T04:39:29.281Z,16.98
2017-09-14T04:41:55.949Z,16.10
2017-09-14T04:44:22.611Z,15.98
2017-09-14T04:46:49.279Z,19.62
2017-09-14T04:49:15.940Z,17.40
2017-09-14T04:51:42.603Z,21.65
2017-09-14T04:54:09.268Z,19.20
2017-09-14T04:56:35.936Z,20.30
2017-09-14T04:59:02.608Z,18.48
2017-09-14T05:01:29.374Z,21.75
2017-09-14T05:03:56.041Z,24.48
2017-09-14T05:06:22.744Z,19.12
2017-09-14T05:08:49.409Z,17.85
2017-09-14T05:11:16.088Z,19.85
2017-09-14T05:13:42.760Z,18.83
2017-09-14T05:16:09.424Z,23.80
2017-09-14T05:18:36.088Z,21.55
2017-09-14T05:21:02.757Z,22.35
2017-09-14T05:23:29.424Z,23.08
2017-09-14T05:25:56.088Z,20.40
2017-09-14T05:28:22.755Z,19.35
2017-09-14T05:30:49.427Z,17.67
2017-09-14T05:33:16.104Z,19.52
2017-09-14T05:35:42.767Z,19.30
2017-09-14T05:38:09.427Z,25.25
2017-09-14T05:40:36.123Z,22.17
2017-09-14T05:43:02.789Z,20.15
2017-09-14T05:45:29.480Z,21.37
2017-09-14T05:47:56.148Z,19.45
2017-09-14T05:50:22.835Z,21.60
2017-09-14T05:52:49.521Z,21.65
2017-09-14T05:55:16.207Z,17.12
2017-09-14T05:57:42.877Z,16.92
2017-09-14T06:00:09.543Z,16.05
2017-09-14T06:02:36.232Z,15.82
2017-09-14T06:05:02.917Z,16.52
2017-09-14T06:07:29.626Z,21.05
2017-09-14T06:09:56.292Z,16.80
2017-09-14T06:12:22.994Z,20.30
2017-09-14T06:14:49.663Z,21.08
2017-09-14T06:17:16.365Z,17.35
2017-09-14T06:19:43.040Z,17.17
2017-09-14T06:22:09.700Z,17.77
2017-09-14T06:24:36.388Z,16.60
2017-09-14T06:27:03.061Z,17.23
2017-09-14T06:29:29.751Z,15.77
2017-09-14T06:31:56.445Z,17.35
2017-09-14T06:34:23.132Z,17.58
2017-09-14T06:36:49.800Z,17.80
2017-09-14T06:39:16.500Z,17.52
2017-09-14T06:41:43.168Z,15.98
2017-09-14T06:44:09.827Z,15.15
2017-09-14T06:46:36.520Z,19.67
2017-09-14T06:49:03.185Z,13.48
2017-09-14T06:51:29.922Z,13.95
2017-09-14T06:53:56.591Z,17.20
2017-09-14T06:56:23.276Z,13.20
2017-09-14T06:58:49.940Z,13.57
2017-09-14T07:01:16.635Z,17.37
2017-09-14T07:03:43.297Z,14.23
2017-09-14T07:06:10.003Z,13.07
2017-09-14T07:08:36.668Z,11.57
2017-09-14T07:11:03.331Z,11.98
2017-09-14T07:13:30.004Z,11.55
2017-09-14T07:15:56.680Z,14.25
2017-09-14T07:18:23.368Z,12.50
2017-09-14T07:20:50.040Z,15.13
2017-09-14T07:23:16.728Z,14.23
2017-09-14T07:25:43.397Z,12.70
2017-09-14T07:28:10.087Z,14.35
2017-09-14T07:30:36.747Z,13.18
2017-09-14T07:33:03.440Z,14.43
2017-09-14T07:35:30.118Z,13.18
2017-09-14T07:37:56.812Z,13.20
2017-09-14T07:40:23.477Z,14.10
2017-09-14T07:42:50.180Z,15.65
2017-09-14T07:45:16.844Z,13.93
2017-09-14T07:47:43.561Z,12.35
2017-09-14T07:50:10.227Z,12.05
2017-09-14T07:52:36.898Z,15.63
2017-09-14T07:55:03.564Z,12.85
2017-09-14T07:57:30.259Z,15.40
2017-09-14T07:59:56.944Z,13.05
2017-09-14T08:02:23.615Z,15.32
2017-09-14T08:04:50.334Z,11.70
2017-09-14T08:07:17.015Z,11.80
2017-09-14T08:09:43.680Z,11.60
2017-09-14T08:12:10.339Z,10.20
2017-09-14T08:14:37.000Z,11.00
2017-09-14T08:17:03.668Z,10.73
2017-09-14T08:19:30.340Z,13.80
2017-09-14T08:21:56.998Z,14.40
2017-09-14T08:24:23.663Z,11.57
2017-09-14T08:26:50.364Z,12.13
2017-09-14T08:29:17.023Z,11.57
2017-09-14T08:31:43.705Z,12.90
2017-09-14T08:34:10.367Z,12.67
2017-09-14T08:36:37.044Z,12.50
2017-09-14T08:39:03.716Z,13.95
2017-09-14T08:41:30.392Z,13.00
2017-09-14T08:43:57.084Z,12.32
2017-09-14T08:46:23.739Z,14.05
2017-09-14T08:48:50.432Z,11.45
2017-09-14T08:51:17.105Z,11.18
2017-09-14T08:53:43.813Z,14.23
2017-09-14T08:56:10.476Z,10.80
2017-09-14T08:58:37.178Z,13.77
2017-09-14T09:01:03.851Z,11.73
2017-09-14T09:03:30.524Z,12.05
2017-09-14T09:05:57.783Z,13.65
2017-09-14T09:08:24.451Z,11.57
2017-09-14T09:10:51.124Z,10.90
2017-09-14T09:13:17.796Z,16.15
2017-09-14T09:15:44.490Z,10.55
2017-09-14T09:18:11.163Z,13.25
2017-09-14T09:20:37.875Z,10.20
2017-09-14T09:23:04.543Z,10.52
2017-09-14T09:25:31.203Z,9.23
2017-09-14T09:27:57.876Z,11.35
2017-09-14T09:30:24.548Z,9.40
2017-09-14T09:32:51.228Z,9.27
2017-09-14T09:35:17.892Z,8.38
2017-09-14T09:37:44.555Z,8.50
2017-09-14T09:40:11.223Z,10.50
2017-09-14T09:42:37.912Z,9.50
2017-09-14T09:45:04.575Z,10.93
2017-09-14T09:47:31.260Z,9.90
2017-09-14T09:49:57.923Z,10.52
2017-09-14T09:52:24.644Z,10.00
2017-09-14T09:54:51.303Z,10.15
2017-09-14T09:57:17.983Z,10.13
2017-09-14T09:59:44.639Z,9.60
2017-09-14T10:02:11.312Z,10.25
2017-09-14T10:04:37.980Z,9.23
2017-09-14T10:07:04.647Z,11.68
2017-09-14T10:09:31.311Z,10.00
2017-09-14T10:11:57.980Z,10.63
2017-09-14T10:14:24.672Z,11.90
2017-09-14T10:16:51.335Z,11.77
2017-09-14T10:19:18.004Z,10.88
2017-09-14T10:21:44.669Z,11.57
2017-09-14T10:24:11.332Z,10.85
2017-09-14T10:26:37.992Z,14.82
2017-09-14T10:29:04.654Z,13.95
2017-09-14T10:31:31.315Z,7.35
2017-09-14T10:33:57.973Z,8.15
2017-09-14T10:36:24.633Z,7.87
2017-09-14T10:38:51.291Z,8.55
2017-09-14T10:41:17.988Z,7.80
2017-09-14T10:43:44.639Z,7.30
2017-09-14T10:46:11.296Z,7.55
2017-09-14T10:48:37.956Z,7.45
2017-09-14T10:51:05.785Z,7.75
2017-09-14T10:53:32.459Z,7.32
2017-09-14T10:55:59.119Z,6.80
2017-09-14T10:58:25.776Z,6.75
2017-09-14T11:00:52.432Z,6.10
2017-09-14T11:03:19.088Z,6.45
2017-09-14T11:05:45.764Z,6.25
2017-09-14T11:08:12.457Z,7.07
2017-09-14T11:10:39.128Z,6.70
2017-09-14T11:13:05.784Z,6.65
2017-09-14T11:15:32.444Z,5.93
2017-09-14T11:17:59.122Z,5.30
2017-09-14T11:20:25.799Z,6.28
2017-09-14T11:22:52.470Z,5.90
2017-09-14T11:25:19.123Z,5.32
2017-09-14T11:27:45.786Z,5.82
2017-09-14T11:30:12.443Z,5.00
2017-09-14T11:32:39.096Z,5.57
2017-09-14T11:35:05.791Z,4.78
2017-09-14T11:37:32.447Z,6.25
2017-09-14T11:39:59.108Z,4.95
2017-09-14T11:42:25.764Z,5.28
2017-09-14T11:44:52.424Z,4.72
2017-09-14T11:47:19.089Z,5.90
2017-09-14T11:49:45.763Z,5.87
2017-09-14T11:52:12.420Z,4.45
2017-09-14T11:54:39.075Z,4.20
2017-09-14T11:57:05.727Z,3.90
2017-09-14T11:59:32.387Z,3.40
2017-09-14T12:01:59.071Z,3.67
2017-09-14T12:04:25.731Z,5.35
2017-09-14T12:06:52.395Z,3.53
2017-09-14T12:09:19.056Z,2.92
2017-09-14T12:11:45.713Z,3.35
2017-09-14T12:14:12.380Z,2.67
2017-09-14T12:16:39.044Z,2.30
2017-09-14T12:19:05.704Z,2.60
2017-09-14T12:21:32.360Z,4.80
2017-09-14T12:23:59.049Z,2.70
2017-09-14T12:26:25.712Z,2.50
2017-09-14T12:28:52.363Z,3.72
2017-09-14T12:31:19.019Z,2.67
2017-09-14T12:33:45.672Z,3.58
2017-09-14T12:36:12.361Z,2.75
2017-09-14T12:38:39.019Z,3.03
2017-09-14T12:41:05.696Z,2.67
2017-09-14T12:43:32.356Z,2.75
2017-09-14T12:45:59.052Z,2.72
2017-09-14T12:48:25.712Z,2.50
2017-09-14T12:50:53.192Z,3.75
2017-09-14T12:53:19.847Z,2.47
2017-09-14T12:55:46.535Z,2.40
2017-09-14T12:58:13.217Z,3.90
2017-09-14T13:00:39.868Z,2.55
2017-09-14T13:03:06.525Z,4.03
2017-09-14T13:05:33.184Z,3.30
2017-09-14T13:07:59.868Z,4.40
2017-09-14T13:10:26.524Z,2.53
2017-09-14T13:12:53.204Z,3.95
2017-09-14T13:15:19.864Z,2.62
2017-09-14T13:17:46.549Z,3.12
2017-09-14T13:20:13.235Z,5.43
2017-09-14T13:22:39.916Z,2.78
2017-09-14T13:25:06.579Z,3.47
2017-09-14T13:27:33.259Z,3.33
2017-09-14T13:29:59.920Z,3.05
2017-09-14T13:32:26.576Z,4.20
2017-09-14T13:34:53.292Z,4.65
2017-09-14T13:37:19.948Z,2.55
2017-09-14T13:39:46.599Z,3.55
2017-09-14T13:42:13.264Z,3.28
2017-09-14T13:44:39.948Z,2.55
2017-09-14T13:47:06.599Z,4.32
2017-09-14T13:49:33.276Z,3.10
2017-09-14T13:51:59.940Z,2.72
2017-09-14T13:54:26.627Z,3.35
2017-09-14T13:56:53.290Z,2.40
2017-09-14T13:59:20.009Z,3.15
2017-09-14T14:01:46.671Z,2.40
2017-09-14T14:04:13.360Z,3.85
2017-09-14T14:06:40.019Z,3.28
2017-09-14T14:09:06.672Z,5.37
2017-09-14T14:11:33.328Z,2.30
2017-09-14T14:13:59.979Z,3.17
2017-09-14T14:16:26.640Z,2.53
2017-09-14T14:18:53.295Z,2.60
2017-09-14T14:21:19.981Z,3.80
2017-09-14T14:23:46.669Z,3.10
2017-09-14T14:26:13.360Z,3.80
2017-09-14T14:28:40.023Z,4.00
2017-09-14T14:31:06.696Z,4.03
2017-09-14T14:33:33.375Z,4.37
2017-09-14T14:36:00.035Z,4.30
2017-09-14T14:38:26.694Z,4.70
2017-09-14T14:43:26.696Z,4.90
2017-09-14T14:45:53.387Z,3.95
2017-09-14T14:48:20.075Z,3.60
2017-09-14T14:50:46.744Z,4.07
2017-09-14T14:53:13.436Z,3.55
2017-09-14T14:55:40.096Z,3.70
2017-09-14T14:58:06.788Z,3.55
2017-09-14T15:00:33.448Z,3.97
2017-09-14T15:03:00.130Z,4.10
2017-09-14T15:05:26.831Z,4.10
2017-09-14T15:07:53.496Z,4.32
2017-09-14T15:10:20.152Z,4.62
2017-09-14T15:12:46.809Z,4.68
2017-09-14T15:15:13.484Z,4.50
2017-09-14T15:17:40.136Z,4.10
2017-09-14T15:20:06.852Z,4.53
2017-09-14T15:22:33.508Z,5.47
2017-09-14T15:25:00.172Z,4.45
2017-09-14T15:27:26.832Z,4.10
2017-09-14T15:29:53.519Z,3.70
2017-09-14T15:32:20.168Z,4.35
2017-09-14T15:34:46.826Z,3.85
2017-09-14T15:37:19.311Z,4.72
2017-09-14T15:39:51.801Z,4.20
2017-09-14T15:42:24.015Z,6.15
2017-09-14T15:44:56.456Z,4.45
2017-09-14T15:47:23.119Z,4.55
2017-09-14T15:49:55.414Z,6.05
2017-09-14T15:52:22.070Z,6.10
2017-09-14T15:54:48.732Z,11.05
2017-09-14T15:57:15.415Z,4.40
2017-09-14T15:59:42.076Z,4.95
2017-09-14T16:02:08.760Z,3.90
2017-09-14T16:04:35.467Z,5.47
2017-09-14T16:07:02.177Z,3.80
2017-09-14T16:09:28.844Z,4.50
2017-09-14T16:11:55.527Z,4.07
2017-09-14T16:14:22.188Z,4.15
2017-09-14T16:16:48.888Z,3.95
2017-09-14T16:19:15.560Z,3.75
2017-09-14T16:21:42.227Z,3.87
2017-09-14T16:24:08.893Z,3.60
2017-09-14T16:26:35.556Z,3.58
2017-09-14T16:29:02.303Z,3.83
2017-09-14T16:31:29.025Z,5.57
2017-09-14T16:33:55.735Z,3.62
2017-09-14T16:36:22.383Z,4.72
2017-09-14T16:38:49.743Z,4.97
2017-09-14T16:41:16.409Z,3.60
2017-09-14T16:43:43.071Z,3.37
2017-09-14T16:46:09.749Z,3.70
2017-09-14T16:48:36.411Z,3.50
2017-09-14T16:51:03.138Z,3.42
2017-09-14T16:53:29.812Z,2.53
2017-09-14T16:55:56.768Z,3.17
2017-09-14T16:58:23.473Z,2.70
2017-09-14T17:00:50.160Z,2.70
2017-09-14T17:03:16.832Z,3.25
2017-09-14T17:05:43.580Z,3.12
2017-09-14T17:08:10.260Z,2.90
2017-09-14T17:10:36.943Z,2.80
2017-09-14T17:13:03.595Z,3.20
2017-09-14T17:15:30.276Z,3.17
2017-09-14T17:17:56.944Z,2.70
2017-09-14T17:20:23.654Z,2.83
2017-09-14T17:22:50.321Z,3.08
2017-09-14T17:25:16.980Z,2.70
2017-09-14T17:27:43.632Z,2.62
2017-09-14T17:30:10.287Z,2.67
2017-09-14T17:32:36.989Z,2.70
2017-09-14T17:35:03.647Z,2.92
2017-09-14T17:37:30.413Z,2.85
2017-09-14T17:39:57.072Z,3.30
2017-09-14T17:42:23.747Z,2.95
2017-09-14T17:44:50.404Z,2.67
2017-09-14T17:47:17.116Z,3.20
2017-09-14T17:49:43.776Z,3.60
2017-09-14T17:52:10.436Z,3.20
2017-09-14T17:54:37.092Z,3.47
2017-09-14T17:57:03.743Z,2.90
2017-09-14T17:59:30.423Z,3.00
2017-09-14T18:01:57.080Z,3.30
2017-09-14T18:04:23.760Z,3.10
2017-09-14T18:06:50.415Z,2.60
2017-09-14T18:09:17.095Z,3.50
2017-09-14T18:11:43.756Z,3.37
2017-09-14T18:14:10.456Z,4.00
2017-09-14T18:16:37.210Z,3.40
2017-09-14T18:19:03.872Z,3.62
2017-09-14T18:21:30.536Z,4.68
2017-09-14T18:23:57.335Z,3.50
2017-09-14T18:26:24.000Z,3.90
2017-09-14T18:28:50.738Z,4.37
2017-09-14T18:31:17.433Z,4.70
2017-09-14T18:33:44.091Z,3.72
2017-09-14T18:36:10.792Z,4.07
2017-09-14T18:38:37.449Z,3.85
2017-09-14T18:41:04.121Z,3.70
2017-09-14T18:43:30.864Z,4.30
2017-09-14T18:45:58.236Z,4.15
2017-09-14T18:48:24.899Z,4.47
2017-09-14T18:50:51.572Z,4.65
2017-09-14T18:53:18.232Z,5.03
2017-09-14T18:55:44.906Z,4.68
2017-09-14T18:58:11.570Z,4.95
2017-09-14T19:00:38.230Z,5.32
2017-09-14T19:03:04.912Z,5.30
2017-09-14T19:05:31.571Z,5.47
2017-09-14T19:07:58.247Z,5.80
2017-09-14T19:10:24.916Z,6.03
2017-09-14T19:12:51.607Z,5.62
2017-09-14T19:15:18.265Z,5.50
2017-09-14T19:17:44.928Z,5.93
2017-09-14T19:20:11.583Z,6.50
2017-09-14T19:22:38.236Z,5.78
2017-09-14T19:25:04.912Z,6.10
2017-09-14T19:27:31.572Z,7.30
2017-09-14T19:29:58.228Z,7.05
2017-09-14T19:32:24.920Z,7.93
2017-09-14T19:34:51.576Z,8.63
2017-09-14T19:37:18.287Z,7.75
2017-09-14T19:39:44.976Z,9.27
2017-09-14T19:42:11.652Z,9.27
2017-09-14T19:44:38.351Z,9.93
2017-09-14T19:47:05.012Z,10.15
2017-09-14T19:49:31.667Z,9.73
2017-09-14T19:51:58.352Z,9.73
2017-09-14T19:54:25.011Z,10.50
2017-09-14T19:56:51.676Z,11.18
2017-09-14T19:59:18.335Z,9.52
2017-09-14T20:01:44.995Z,10.75
2017-09-14T20:04:11.656Z,11.20
2017-09-14T20:06:38.326Z,12.68
2017-09-14T20:09:04.987Z,11.82
2017-09-14T20:11:31.680Z,11.20
2017-09-14T20:13:58.339Z,13.20
2017-09-14T20:16:25.043Z,11.12
2017-09-14T20:18:51.731Z,10.75
2017-09-14T20:21:18.396Z,11.65
2017-09-14T20:23:45.086Z,12.23
2017-09-14T20:26:11.739Z,11.50
2017-09-14T20:28:38.400Z,10.60
2017-09-14T20:31:05.065Z,11.05
2017-09-14T20:33:31.752Z,11.02
2017-09-14T20:35:58.412Z,10.60
2017-09-14T20:38:25.081Z,10.80
2017-09-14T20:40:51.751Z,11.38
2017-09-14T20:43:18.412Z,13.85
2017-09-14T20:45:45.099Z,10.93
2017-09-14T20:48:11.782Z,11.43
2017-09-14T20:50:38.444Z,11.40
2017-09-14T20:53:05.175Z,10.68
2017-09-14T20:55:31.828Z,9.10
2017-09-14T20:57:58.479Z,9.88
2017-09-14T21:00:25.127Z,9.30
2017-09-14T21:02:51.780Z,9.35
2017-09-14T21:05:18.440Z,11.98
2017-09-14T21:07:45.099Z,9.23
2017-09-14T21:10:11.768Z,11.12
2017-09-14T21:12:38.434Z,7.70
2017-09-14T21:15:05.087Z,6.85
2017-09-14T21:17:31.749Z,6.95
2017-09-14T21:19:58.432Z,7.37
2017-09-14T21:22:25.083Z,8.77
2017-09-14T21:24:51.740Z,9.70
2017-09-14T21:27:18.400Z,6.30
2017-09-14T21:29:45.061Z,5.55
2017-09-14T21:32:11.735Z,7.10
2017-09-14T21:34:38.416Z,6.57
2017-09-14T21:37:05.099Z,12.88
2017-09-14T21:39:31.760Z,4.97
2017-09-14T21:41:58.439Z,6.72
2017-09-14T21:44:25.096Z,7.05
2017-09-14T21:46:51.772Z,4.00
2017-09-14T21:49:18.432Z,5.25
2017-09-14T21:51:45.108Z,5.65
2017-09-14T21:54:11.784Z,12.10
2017-09-14T21:56:38.492Z,10.77
2017-09-14T21:59:05.147Z,6.93
2017-09-14T22:01:31.815Z,9.65
2017-09-14T22:03:58.484Z,57.72
2017-09-14T22:06:25.144Z,31.23
2017-09-14T22:08:51.836Z,7.65
2017-09-14T22:11:18.492Z,9.32
2017-09-14T22:13:45.175Z,8.60
2017-09-14T22:16:11.825Z,4.70
2017-09-14T22:18:38.503Z,8.75
2017-09-14T22:21:05.159Z,12.55
2017-09-14T22:23:31.844Z,11.82
2017-09-14T22:25:58.500Z,9.70
2017-09-14T22:28:25.199Z,11.35
2017-09-14T22:30:51.864Z,5.72
2017-09-14T22:33:18.519Z,16.40
2017-09-14T22:35:45.291Z,7.40
2017-09-14T22:38:11.947Z,7.95
2017-09-14T22:40:38.635Z,12.82
2017-09-14T22:43:05.312Z,7.40
2017-09-14T22:45:31.996Z,8.35
2017-09-14T22:47:58.651Z,4.30
2017-09-14T22:50:26.135Z,7.68
2017-09-14T22:52:52.787Z,9.07
2017-09-14T22:55:19.511Z,10.70
2017-09-14T22:57:46.164Z,6.62
2017-09-14T23:00:12.864Z,8.15
2017-09-14T23:02:39.565Z,8.88
2017-09-14T23:05:06.215Z,8.30
2017-09-14T23:07:32.872Z,8.52
2017-09-14T23:09:59.531Z,10.95
2017-09-14T23:12:26.192Z,9.25
2017-09-14T23:14:52.843Z,7.18
2017-09-14T23:17:19.515Z,9.27
2017-09-14T23:19:46.171Z,9.57
2017-09-14T23:22:12.864Z,12.20
2017-09-14T23:24:39.520Z,8.20
2017-09-14T23:27:06.204Z,14.15
2017-09-14T23:29:32.892Z,7.00
2017-09-14T23:31:59.595Z,8.10
2017-09-14T23:34:26.256Z,10.02
2017-09-14T23:36:52.963Z,13.90
2017-09-14T23:39:19.615Z,9.43
2017-09-14T23:41:46.268Z,9.73
2017-09-14T23:44:12.930Z,13.52
2017-09-14T23:46:39.591Z,9.13
2017-09-14T23:49:06.249Z,11.40
2017-09-14T23:51:32.903Z,9.02
2017-09-14T23:53:59.580Z,10.63
2017-09-14T23:56:26.248Z,9.02
2017-09-14T23:58:53.005Z,11.48
